Time;durP1;ratioP1;P1;durP2;ratioP2;P2;SDS_P1;SDS_P2;PMS_P1;PMS_P2;Temp;Humidity;BMP_temperature;BMP_pressure;BME280_temperature;BME280_humidity;BME280_pressure;Samples;Min_cycle;Max_cycle;Signal;HPM_P1;HPM_P2
2021/12/19 00:00:40;;;;;;;13.43;2.92;;;;;;;6.64;89.67;102434.31;5059821;28;20031;-54
2021/12/19 00:08:40;;;;;;;9.82;2.85;;;;;;;6.69;89.56;102427.59;5060798;28;20506;-52
2021/12/19 00:11:05;;;;;;;10.73;2.88;;;;;;;6.65;89.34;102430.63;5057717;28;20157;-53
2021/12/19 00:13:31;;;;;;;10.85;3.22;;;;;;;6.65;89.53;102435.97;5067914;28;20032;-49
2021/12/19 00:15:57;;;;;;;10.32;2.78;;;;;;;6.70;89.78;102419.44;5057378;28;20033;-54
2021/12/19 00:18:23;;;;;;;19.95;2.90;;;;;;;6.62;89.73;102412.31;5065008;28;20020;-52
2021/12/19 00:20:49;;;;;;;9.60;2.30;;;;;;;6.68;89.59;102405.47;5057209;28;20029;-52
2021/12/19 00:23:15;;;;;;;9.60;2.35;;;;;;;6.66;89.32;102418.13;5062995;28;20047;-51
2021/12/19 00:25:40;;;;;;;13.43;3.00;;;;;;;6.68;89.53;102409.97;5055813;28;20029;-52
2021/12/19 00:28:06;;;;;;;10.57;2.40;;;;;;;6.65;89.44;102403.16;5065753;28;20024;-52
2021/12/19 00:30:32;;;;;;;10.85;2.42;;;;;;;6.69;89.31;102406.28;5060285;28;20020;-52
2021/12/19 00:32:58;;;;;;;11.07;2.85;;;;;;;6.61;89.08;102402.69;5061705;28;20032;-52
2021/12/19 00:35:24;;;;;;;10.02;2.47;;;;;;;6.66;89.26;102397.66;5061791;28;20149;-51
2021/12/19 00:37:51;;;;;;;12.27;3.08;;;;;;;6.55;89.12;102399.94;5059622;28;20028;-53
2021/12/19 00:40:17;;;;;;;8.02;3.00;;;;;;;6.58;89.64;102394.22;5054904;28;20025;-53
2021/12/19 00:42:43;;;;;;;9.43;3.25;;;;;;;6.65;89.01;102396.00;5064003;28;20075;-55
2021/12/19 00:45:27;;;;;;;7.43;2.45;;;;;;;6.62;89.49;102393.69;5063434;28;20200;-50
2021/12/19 00:47:53;;;;;;;8.05;2.70;;;;;;;6.59;89.13;102395.88;5060393;28;20060;-51
2021/12/19 00:50:19;;;;;;;10.45;2.70;;;;;;;6.60;88.90;102387.72;5062906;28;20437;-52
2021/12/19 00:52:46;;;;;;;9.70;3.17;;;;;;;6.58;88.89;102381.75;5064219;28;20055;-52
2021/12/19 00:55:13;;;;;;;8.40;2.40;;;;;;;6.53;89.06;102380.66;5061598;28;20021;-51
2021/12/19 00:57:39;;;;;;;13.50;2.97;;;;;;;6.60;89.27;102370.91;5059150;28;20033;-53
2021/12/19 01:00:07;;;;;;;14.27;3.45;;;;;;;6.54;88.41;102368.97;5058436;28;20033;-52
2021/12/19 01:02:32;;;;;;;8.43;2.65;;;;;;;6.60;88.95;102360.25;5059913;28;20044;-52
2021/12/19 01:04:58;;;;;;;5.47;2.53;;;;;;;6.57;88.78;102360.63;5055747;28;20472;-52
2021/12/19 01:07:23;;;;;;;10.27;2.60;;;;;;;6.61;88.83;102361.91;5060130;28;20400;-52
2021/12/19 01:09:49;;;;;;;15.05;3.30;;;;;;;6.62;88.54;102364.38;5061410;28;20056;-53
2021/12/19 01:12:14;;;;;;;8.15;2.90;;;;;;;6.55;88.39;102357.31;5059648;28;20103;-51
2021/12/19 01:14:40;;;;;;;9.77;2.53;;;;;;;6.58;88.72;102365.75;5061797;28;20052;-52
2021/12/19 01:17:07;;;;;;;7.68;3.13;;;;;;;6.60;88.72;102384.22;5060159;28;20586;-49
2021/12/19 01:19:33;;;;;;;12.95;4.05;;;;;;;6.61;88.54;102373.38;5056652;28;20111;-52
2021/12/19 01:21:59;;;;;;;8.23;2.90;;;;;;;6.65;88.43;102389.84;5059286;28;20107;-52
2021/12/19 01:24:25;;;;;;;7.60;2.92;;;;;;;6.55;88.07;102394.59;5064897;28;20522;-52
2021/12/19 01:26:50;;;;;;;9.68;3.00;;;;;;;6.57;88.15;102392.59;5059667;28;20047;-51
2021/12/19 01:29:16;;;;;;;12.20;2.88;;;;;;;6.66;88.06;102392.34;5066484;28;20039;-51
2021/12/19 01:31:42;;;;;;;8.43;2.63;;;;;;;6.66;88.08;102388.84;5054097;28;20012;-53
2021/12/19 01:34:12;;;;;;;11.23;3.17;;;;;;;6.63;87.58;102387.34;5062372;28;20055;-52
2021/12/19 01:36:41;;;;;;;14.15;2.97;;;;;;;6.65;87.97;102385.34;5062824;28;20050;-53
2021/12/19 01:39:07;;;;;;;9.77;2.47;;;;;;;6.61;88.01;102385.88;5061829;28;20032;-50
2021/12/19 01:41:33;;;;;;;10.85;3.38;;;;;;;6.58;87.66;102380.91;5057730;28;20542;-50
2021/12/19 01:43:58;;;;;;;7.47;2.70;;;;;;;6.57;87.87;102373.94;5059931;28;20036;-52
2021/12/19 01:46:24;;;;;;;5.57;2.10;;;;;;;6.54;87.88;102377.81;5057238;28;20025;-52
2021/12/19 01:48:49;;;;;;;6.60;2.78;;;;;;;6.51;87.89;102370.19;5058834;28;20048;-52
2021/12/19 01:51:15;;;;;;;10.07;2.22;;;;;;;6.52;87.99;102361.19;5058674;28;20016;-54
2021/12/19 01:53:41;;;;;;;8.02;2.53;;;;;;;6.52;87.57;102355.03;5062891;28;20388;-52
2021/12/19 01:56:07;;;;;;;11.30;3.28;;;;;;;6.52;87.52;102371.00;5058363;28;20017;-51
2021/12/19 01:58:34;;;;;;;10.20;2.35;;;;;;;6.52;87.35;102355.03;5058388;28;20423;-49
2021/12/19 02:01:00;;;;;;;10.30;2.67;;;;;;;6.53;87.57;102356.69;5055958;28;20025;-51
2021/12/19 02:03:26;;;;;;;7.72;2.30;;;;;;;6.54;87.64;102367.16;5057757;28;20024;-52
2021/12/19 02:05:52;;;;;;;9.60;2.17;;;;;;;6.60;87.51;102354.94;5057470;28;20027;-52
2021/12/19 02:08:18;;;;;;;5.85;2.67;;;;;;;6.58;87.23;102348.97;5066034;28;20036;-51
2021/12/19 02:10:45;;;;;;;9.40;2.33;;;;;;;6.53;87.51;102356.69;5060445;28;20070;-52
2021/12/19 02:13:13;;;;;;;8.82;2.70;;;;;;;6.60;87.51;102347.75;5060772;28;20028;-52
2021/12/19 02:15:40;;;;;;;10.30;2.30;;;;;;;6.62;87.40;102348.41;5056537;28;20033;-54
2021/12/19 02:18:14;;;;;;;9.52;2.53;;;;;;;6.57;87.15;102340.16;5058209;28;20090;-52
2021/12/19 02:20:43;;;;;;;9.07;2.60;;;;;;;6.61;87.57;102329.94;5054797;28;20075;-49
2021/12/19 02:23:10;;;;;;;4.07;1.80;;;;;;;6.56;86.66;102327.84;5065608;28;20024;-52
2021/12/19 02:25:37;;;;;;;7.97;2.42;;;;;;;6.55;86.87;102331.50;5063347;28;20024;-50
2021/12/19 02:28:03;;;;;;;9.38;2.20;;;;;;;6.54;86.78;102331.69;5060420;28;20048;-53
2021/12/19 02:30:29;;;;;;;10.60;2.33;;;;;;;6.59;86.68;102329.31;5058030;28;20127;-53
2021/12/19 02:32:55;;;;;;;8.88;2.25;;;;;;;6.54;86.94;102316.56;5061505;28;20107;-50
2021/12/19 02:35:25;;;;;;;8.48;2.30;;;;;;;6.55;86.91;102310.22;5064054;28;20116;-49
2021/12/19 02:48:26;;;;;;;6.32;2.30;;;;;;;6.61;86.23;102290.00;5062713;28;20357;-51
2021/12/19 02:50:54;;;;;;;13.10;2.35;;;;;;;6.61;85.86;102295.31;5061381;28;20020;-51
2021/12/19 02:53:30;;;;;;;8.35;3.22;;;;;;;6.65;85.69;102296.63;5069339;28;20027;-52
2021/12/19 02:55:56;;;;;;;6.38;1.83;;;;;;;6.61;85.47;102292.66;5065609;28;20112;-52
2021/12/19 02:58:21;;;;;;;7.60;2.30;;;;;;;6.54;85.87;102295.25;5069471;28;21469;-52
2021/12/19 03:00:48;;;;;;;5.93;2.03;;;;;;;6.61;86.15;102280.16;5063678;28;20036;-51
2021/12/19 03:03:14;;;;;;;11.35;2.80;;;;;;;6.57;86.18;102275.41;5067242;28;20028;-52
2021/12/19 03:05:40;;;;;;;8.18;2.50;;;;;;;6.54;85.70;102270.44;5061811;28;20041;-52
2021/12/19 03:08:08;;;;;;;4.03;2.00;;;;;;;6.63;85.71;102264.81;5068411;28;20020;-53
2021/12/19 03:18:30;;;;;;;6.80;2.35;;;;;;;6.55;85.75;102282.75;5064103;28;20055;-52
2021/12/19 03:20:55;;;;;;;11.18;2.22;;;;;;;6.60;86.04;102286.50;5053852;28;20112;-53
2021/12/19 03:23:21;;;;;;;11.02;2.75;;;;;;;6.57;85.97;102262.91;5067658;28;20115;-50
2021/12/19 03:25:47;;;;;;;5.88;2.10;;;;;;;6.55;86.05;102274.75;5062904;28;20028;-51
2021/12/19 03:28:13;;;;;;;3.60;1.70;;;;;;;6.53;86.38;102274.13;5068289;28;20024;-51
2021/12/19 03:30:41;;;;;;;4.93;1.85;;;;;;;6.56;86.02;102265.75;5059371;28;20032;-52
2021/12/19 03:33:07;;;;;;;10.10;2.15;;;;;;;6.55;86.19;102272.09;5062662;28;20031;-53
2021/12/19 03:35:33;;;;;;;7.30;2.03;;;;;;;6.54;86.58;102260.63;5055407;28;20035;-52
2021/12/19 03:38:02;;;;;;;7.50;2.63;;;;;;;6.56;86.45;102263.94;5067333;28;20041;-51
2021/12/19 03:40:35;;;;;;;10.32;2.22;;;;;;;6.58;86.50;102258.41;5058976;28;20043;-54
2021/12/19 03:43:05;;;;;;;4.57;2.38;;;;;;;6.51;87.29;102265.50;5063310;28;20089;-53
2021/12/19 03:45:30;;;;;;;4.97;2.33;;;;;;;6.52;87.03;102273.31;5065258;28;20520;-52
2021/12/19 03:47:56;;;;;;;14.50;3.03;;;;;;;6.51;87.54;102268.16;5047649;28;20028;-51
2021/12/19 03:50:23;;;;;;;8.07;2.33;;;;;;;6.55;87.36;102264.94;5062822;28;20056;-52
2021/12/19 03:52:54;;;;;;;5.72;2.22;;;;;;;6.52;87.78;102261.81;5047710;28;20024;-52
2021/12/19 03:55:24;;;;;;;5.95;2.08;;;;;;;6.50;87.82;102269.19;5058290;28;20021;-51
2021/12/19 03:57:50;;;;;;;7.47;2.38;;;;;;;6.50;87.77;102279.81;5063612;28;20452;-51
2021/12/19 04:00:23;;;;;;;4.88;1.92;;;;;;;6.41;88.42;102275.59;5065896;28;20032;-53
2021/12/19 04:02:52;;;;;;;3.83;2.20;;;;;;;6.35;88.71;102264.66;5060384;28;20025;-50
2021/12/19 04:05:18;;;;;;;5.18;2.00;;;;;;;6.46;88.39;102257.22;5060048;28;20025;-53
2021/12/19 04:07:44;;;;;;;2.55;1.52;;;;;;;6.42;88.52;102272.75;5064761;28;20028;-53
2021/12/19 04:10:09;;;;;;;3.00;1.50;;;;;;;6.36;88.73;102258.34;5066348;28;20025;-53
2021/12/19 04:12:35;;;;;;;4.03;1.45;;;;;;;6.41;88.36;102243.63;5064496;28;20020;-50
2021/12/19 04:15:00;;;;;;;6.07;1.30;;;;;;;6.29;89.20;102248.63;5059500;28;20324;-53
2021/12/19 04:17:26;;;;;;;3.80;1.23;;;;;;;6.30;89.23;102237.78;5060090;28;20392;-49
2021/12/19 04:19:51;;;;;;;7.68;1.58;;;;;;;6.28;89.56;102239.81;5063189;28;20054;-51
2021/12/19 04:22:17;;;;;;;4.45;1.00;;;;;;;6.32;88.84;102238.41;5065967;28;20384;-53
2021/12/19 04:24:43;;;;;;;3.58;1.38;;;;;;;6.33;89.00;102221.44;5061129;28;20429;-52
2021/12/19 04:27:08;;;;;;;3.85;1.67;;;;;;;6.31;88.57;102219.97;5064517;28;20035;-50
2021/12/19 04:29:33;;;;;;;4.57;0.90;;;;;;;6.24;88.97;102233.16;5058041;28;20201;-52
2021/12/19 04:31:59;;;;;;;1.50;0.82;;;;;;;6.24;89.30;102219.03;5056087;28;20032;-51
2021/12/19 04:34:25;;;;;;;2.00;1.08;;;;;;;6.25;88.85;102218.84;5060117;28;20028;-50
2021/12/19 04:37:01;;;;;;;5.38;1.50;;;;;;;6.23;89.02;102223.53;5058735;28;20082;-52
2021/12/19 04:39:41;;;;;;;1.75;1.00;;;;;;;6.26;88.84;102223.16;5064837;28;20082;-53
2021/12/19 04:58:33;;;;;;;2.30;1.02;;;;;;;6.20;89.52;102181.31;5057692;28;20085;-54
2021/12/19 05:03:52;;;;;;;2.67;1.17;;;;;;;6.11;90.28;102185.09;5059284;28;20028;-52
2021/12/19 05:14:33;;;;;;;2.97;1.05;;;;;;;6.15;90.39;102165.09;5064805;28;20031;-53
2021/12/19 05:17:05;;;;;;;3.25;1.60;;;;;;;6.12;90.39;102168.13;5058628;28;20037;-51
2021/12/19 05:19:43;;;;;;;6.50;1.17;;;;;;;6.10;90.43;102163.97;5064541;28;20024;-49
2021/12/19 05:22:09;;;;;;;2.80;0.80;;;;;;;6.09;90.62;102160.47;5059716;28;20344;-50
2021/12/19 05:27:04;;;;;;;4.63;1.27;;;;;;;6.11;89.98;102145.19;5054856;28;20307;-51
2021/12/19 05:29:31;;;;;;;1.20;1.10;;;;;;;6.09;90.34;102152.50;5059419;28;20035;-52
2021/12/19 05:31:57;;;;;;;1.65;1.02;;;;;;;6.19;89.85;102150.41;5038900;28;20033;-51
2021/12/19 05:34:22;;;;;;;5.78;1.38;;;;;;;6.12;90.36;102136.19;5056275;28;20035;-52
2021/12/19 05:45:19;;;;;;;3.13;1.13;;;;;;;6.13;90.67;102124.53;5063783;28;20035;-52
2021/12/19 05:47:47;;;;;;;5.07;1.17;;;;;;;6.16;89.75;102123.34;5058558;28;20016;-50
2021/12/19 05:50:16;;;;;;;3.80;1.27;;;;;;;6.19;90.12;102121.13;5062713;28;20031;-53
2021/12/19 05:52:42;;;;;;;3.50;1.30;;;;;;;6.10;89.89;102118.72;5062559;28;20391;-54
2021/12/19 05:55:08;;;;;;;2.33;1.20;;;;;;;6.21;89.92;102127.09;5064178;28;20054;-52
2021/12/19 05:57:34;;;;;;;4.95;1.30;;;;;;;6.16;89.75;102116.19;5065822;28;20035;-50
2021/12/19 06:00:00;;;;;;;1.77;0.85;;;;;;;6.19;89.61;102113.13;5042758;28;20443;-51
2021/12/19 06:02:26;;;;;;;3.33;0.80;;;;;;;6.18;89.80;102119.47;5057582;28;20155;-51
2021/12/19 06:04:52;;;;;;;2.10;0.95;;;;;;;6.23;89.50;102127.72;5063332;28;20051;-53
2021/12/19 06:07:17;;;;;;;4.57;1.20;;;;;;;6.21;89.45;102132.41;5057220;28;20024;-52
2021/12/19 06:09:43;;;;;;;3.38;1.05;;;;;;;6.28;89.64;102113.84;5057398;28;20550;-54
2021/12/19 06:12:09;;;;;;;5.53;0.93;;;;;;;6.22;89.29;102117.25;5062924;28;20056;-52
2021/12/19 06:14:34;;;;;;;3.53;1.17;;;;;;;6.22;89.59;102117.25;5046196;28;20032;-50
2021/12/19 06:17:01;;;;;;;2.70;1.17;;;;;;;6.29;89.30;102115.53;5063107;28;20043;-49
2021/12/19 06:19:27;;;;;;;5.00;1.45;;;;;;;6.28;88.83;102106.72;5065324;28;20097;-52
2021/12/19 06:21:53;;;;;;;3.85;1.58;;;;;;;6.26;88.96;102110.53;5062417;28;20252;-52
2021/12/19 06:24:18;;;;;;;1.88;1.13;;;;;;;6.23;89.24;102103.75;5057126;28;20192;-52
2021/12/19 06:26:44;;;;;;;3.72;1.33;;;;;;;6.32;88.47;102105.31;5055716;28;20476;-50
2021/12/19 06:29:09;;;;;;;4.38;1.00;;;;;;;6.26;88.77;102098.06;5056722;28;20025;-53
2021/12/19 06:31:35;;;;;;;5.93;1.38;;;;;;;6.29;88.48;102092.41;5058232;28;20021;-52
2021/12/19 06:34:00;;;;;;;3.88;1.10;;;;;;;6.31;88.35;102089.53;5062850;28;20556;-51
2021/12/19 06:36:26;;;;;;;2.47;1.20;;;;;;;6.28;88.52;102079.25;5061906;28;20044;-53
2021/12/19 06:38:52;;;;;;;1.80;0.93;;;;;;;6.34;88.29;102092.66;5060716;28;20033;-49
2021/12/19 06:41:19;;;;;;;5.03;1.10;;;;;;;6.36;87.67;102087.13;5056789;28;20032;-53
2021/12/19 06:43:44;;;;;;;3.65;1.00;;;;;;;6.33;87.73;102088.34;5034474;28;20036;-53
2021/12/19 06:46:09;;;;;;;3.08;1.10;;;;;;;6.41;87.21;102087.38;5057360;28;20033;-52
2021/12/19 06:48:35;;;;;;;4.82;1.08;;;;;;;6.42;87.01;102088.22;5062334;28;20028;-52
2021/12/19 06:51:00;;;;;;;1.95;1.05;;;;;;;6.37;86.74;102080.78;5041405;28;20164;-51
2021/12/19 06:53:26;;;;;;;2.92;1.13;;;;;;;6.39;86.79;102072.63;5062734;28;20032;-53
2021/12/19 06:55:51;;;;;;;4.38;1.00;;;;;;;6.41;86.88;102070.59;5057178;28;20115;-53
2021/12/19 06:58:17;;;;;;;1.25;0.77;;;;;;;6.43;86.63;102072.03;5046912;28;20526;-52
2021/12/19 07:00:43;;;;;;;3.15;1.27;;;;;;;6.46;86.67;102070.84;5058856;28;20127;-53
2021/12/19 07:03:11;;;;;;;4.38;1.38;;;;;;;6.38;86.50;102062.97;5058606;28;20036;-54
2021/12/19 07:05:37;;;;;;;3.08;1.55;;;;;;;6.46;86.14;102055.69;5061145;28;20020;-49
2021/12/19 07:08:02;;;;;;;1.40;1.10;;;;;;;6.43;85.96;102055.25;5061861;28;20024;-51
2021/12/19 07:10:28;;;;;;;2.55;0.90;;;;;;;6.38;85.88;102057.66;5041942;28;20039;-49
2021/12/19 07:12:53;;;;;;;6.68;1.35;;;;;;;6.48;85.72;102058.19;5059081;28;20083;-51
2021/12/19 07:15:19;;;;;;;7.32;1.50;;;;;;;6.45;85.82;102055.88;5042242;28;20024;-52
2021/12/19 07:17:45;;;;;;;6.28;1.27;;;;;;;6.42;85.87;102053.59;5059055;28;20033;-49
2021/12/19 07:20:11;;;;;;;3.65;1.40;;;;;;;6.35;85.89;102042.91;5060355;28;20031;-49
2021/12/19 07:22:37;;;;;;;4.28;1.23;;;;;;;6.44;85.64;102041.75;5063507;28;20430;-51
2021/12/19 07:25:03;;;;;;;6.25;1.25;;;;;;;6.41;85.63;102035.97;5066300;28;21671;-50
2021/12/19 07:27:28;;;;;;;5.00;1.10;;;;;;;6.39;85.68;102035.34;5061431;28;20101;-51
2021/12/19 07:29:56;;;;;;;7.82;1.40;;;;;;;6.27;85.64;102035.84;5059876;28;20091;-51
2021/12/19 07:32:22;;;;;;;7.25;1.40;;;;;;;6.35;85.63;102026.91;5060700;28;20017;-53
2021/12/19 07:34:49;;;;;;;8.65;1.92;;;;;;;6.32;85.66;102022.81;5066989;28;20586;-51
2021/12/19 07:37:15;;;;;;;7.18;1.35;;;;;;;6.27;85.68;102013.72;5060826;28;20047;-53
2021/12/19 07:39:52;;;;;;;5.55;1.10;;;;;;;6.36;85.63;102015.25;5064839;28;20032;-51
2021/12/19 07:42:18;;;;;;;2.08;0.98;;;;;;;6.35;86.02;102022.44;5062772;28;20588;-53
2021/12/19 07:44:44;;;;;;;5.28;1.45;;;;;;;6.34;85.35;102031.41;5060689;28;20032;-52
2021/12/19 07:47:10;;;;;;;4.80;1.05;;;;;;;6.36;85.17;102017.91;5062460;28;20055;-51
2021/12/19 07:49:36;;;;;;;4.18;1.08;;;;;;;6.39;85.48;102022.88;5059957;28;20017;-52
2021/12/19 07:52:02;;;;;;;5.18;1.23;;;;;;;6.43;85.56;102026.78;5063809;28;20409;-49
2021/12/19 07:54:28;;;;;;;5.43;1.30;;;;;;;6.45;85.23;102018.59;5065113;28;20275;-49
2021/12/19 07:56:53;;;;;;;4.43;1.20;;;;;;;6.43;85.18;102002.00;5065152;28;20028;-51
2021/12/19 07:59:19;;;;;;;4.97;1.20;;;;;;;6.49;85.18;102011.91;5054998;28;20056;-53
2021/12/19 08:01:44;;;;;;;5.60;1.30;;;;;;;6.51;85.16;102004.56;5058838;28;20111;-52
2021/12/19 08:04:10;;;;;;;7.20;1.35;;;;;;;6.54;84.84;102005.00;5064269;28;20029;-52
2021/12/19 08:06:35;;;;;;;9.05;2.05;;;;;;;6.52;84.57;102000.88;5060066;28;20029;-50
2021/12/19 08:09:08;;;;;;;2.85;1.30;;;;;;;6.49;84.77;102007.41;5065372;28;20183;-50
2021/12/19 08:11:40;;;;;;;4.68;1.35;;;;;;;6.51;84.82;102010.72;5062335;28;20492;-50
2021/12/19 08:14:15;;;;;;;5.65;1.60;;;;;;;6.49;84.83;102006.59;5061363;28;20493;-50
2021/12/19 08:16:44;;;;;;;3.97;1.40;;;;;;;6.50;84.80;102013.56;5057032;28;20044;-53
2021/12/19 08:19:10;;;;;;;8.07;0.95;;;;;;;6.49;84.39;102007.41;5063889;28;20044;-51
2021/12/19 08:21:36;;;;;;;6.15;1.17;;;;;;;6.57;84.25;102006.44;5059117;28;20032;-53
2021/12/19 08:24:08;;;;;;;4.20;1.17;;;;;;;6.57;83.96;102004.59;5065213;28;20067;-52
2021/12/19 08:26:34;;;;;;;14.40;1.98;;;;;;;6.60;83.99;102003.41;5064127;28;20114;-53
2021/12/19 08:28:59;;;;;;;3.90;0.93;;;;;;;6.62;84.21;101993.38;5059164;28;20025;-50
2021/12/19 08:31:25;;;;;;;4.57;1.40;;;;;;;6.63;83.78;101998.50;5062163;28;20028;-49
2021/12/19 08:33:50;;;;;;;6.53;1.13;;;;;;;6.59;83.37;102001.75;5044441;28;20040;-49
2021/12/19 08:36:16;;;;;;;4.07;1.15;;;;;;;6.67;83.61;101998.97;5064542;28;20031;-50
2021/12/19 08:38:41;;;;;;;7.95;1.20;;;;;;;6.65;83.23;101995.69;5062513;28;20596;-50
2021/12/19 08:41:07;;;;;;;7.07;1.33;;;;;;;6.70;82.83;102003.91;5057916;28;20151;-53
2021/12/19 08:43:33;;;;;;;5.18;1.77;;;;;;;6.74;82.76;102004.34;5063172;28;20044;-53
2021/12/19 08:45:58;;;;;;;3.75;1.30;;;;;;;6.65;82.61;101999.16;5055735;28;20089;-49
2021/12/19 08:48:24;;;;;;;4.32;1.00;;;;;;;6.71;82.93;101992.25;5065477;28;20063;-50
2021/12/19 08:50:51;;;;;;;4.63;1.50;;;;;;;6.75;82.82;101995.34;5059548;28;20034;-53
2021/12/19 08:53:17;;;;;;;5.60;1.70;;;;;;;6.75;82.31;102001.50;5062284;28;20151;-53
2021/12/19 08:55:43;;;;;;;4.90;0.90;;;;;;;6.77;82.75;102010.09;5055873;28;20036;-53
2021/12/19 08:58:08;;;;;;;3.47;1.02;;;;;;;6.78;82.30;102009.09;5059207;28;20039;-53
2021/12/19 09:00:34;;;;;;;5.03;1.25;;;;;;;6.74;82.08;102009.69;5057110;28;20037;-53
2021/12/19 09:03:00;;;;;;;6.47;1.60;;;;;;;6.76;82.13;102002.31;5059457;28;20067;-50
2021/12/19 09:05:28;;;;;;;5.50;1.70;;;;;;;6.85;82.41;101994.00;5063474;28;20400;-51
2021/12/19 09:07:54;;;;;;;6.82;1.42;;;;;;;6.81;82.31;101999.88;5060252;28;20025;-50
2021/12/19 09:10:20;;;;;;;3.15;1.17;;;;;;;6.84;81.89;102000.34;5060370;28;20024;-54
2021/12/19 09:12:46;;;;;;;2.85;1.00;;;;;;;6.86;81.76;101986.84;5061654;28;20112;-50
2021/12/19 09:15:12;;;;;;;5.50;1.20;;;;;;;6.79;81.58;101986.75;5056308;28;20028;-50
2021/12/19 09:17:38;;;;;;;5.63;1.75;;;;;;;6.84;81.90;101987.03;5043930;28;20032;-52
2021/12/19 09:20:06;;;;;;;4.53;1.23;;;;;;;6.81;81.79;101986.56;5060135;28;20048;-52
2021/12/19 09:22:32;;;;;;;5.38;1.20;;;;;;;6.87;81.87;101988.47;5057443;28;20067;-51
2021/12/19 09:24:58;;;;;;;5.03;1.20;;;;;;;6.74;81.87;101985.69;5060764;28;20072;-52
2021/12/19 09:27:23;;;;;;;4.43;0.80;;;;;;;6.82;82.22;101981.06;5061171;28;20028;-51
2021/12/19 09:29:49;;;;;;;4.30;1.15;;;;;;;6.80;81.99;101980.41;5059258;28;20032;-50
2021/12/19 09:32:14;;;;;;;3.08;1.00;;;;;;;6.76;81.93;101984.50;5057610;28;20036;-50
2021/12/19 09:34:40;;;;;;;5.22;1.45;;;;;;;6.86;82.20;101977.00;5061031;28;20158;-53
2021/12/19 09:37:05;;;;;;;4.45;1.45;;;;;;;6.85;81.92;101978.03;5061787;28;20077;-52
2021/12/19 09:39:32;;;;;;;4.13;1.10;;;;;;;6.84;82.45;101976.38;5056287;28;20029;-51
2021/12/19 09:42:02;;;;;;;8.02;1.63;;;;;;;6.84;82.10;101971.03;5060997;28;20513;-53
2021/12/19 09:44:28;;;;;;;8.00;1.20;;;;;;;6.85;82.31;101964.69;5059610;28;20033;-52
2021/12/19 09:46:53;;;;;;;8.38;1.15;;;;;;;6.79;81.99;101965.44;5061472;28;20515;-51
2021/12/19 09:49:21;;;;;;;7.20;1.63;;;;;;;6.84;82.32;101963.06;5061403;28;20024;-53
2021/12/19 09:51:48;;;;;;;3.78;1.50;;;;;;;6.88;82.33;101964.31;5056558;28;20054;-53
2021/12/19 09:54:15;;;;;;;5.43;2.38;;;;;;;6.94;82.20;101966.19;5060813;28;20020;-51
2021/12/19 09:56:42;;;;;;;5.82;2.33;;;;;;;6.89;82.25;101965.94;5058854;28;20042;-50
2021/12/19 09:59:19;;;;;;;6.97;1.40;;;;;;;6.87;81.92;101957.34;5058316;28;20020;-51
2021/12/19 10:01:46;;;;;;;5.82;1.58;;;;;;;6.83;82.48;101958.75;5058097;28;20533;-53
2021/12/19 10:04:30;;;;;;;13.35;2.58;;;;;;;6.83;82.35;101945.44;5059972;28;20063;-52
2021/12/19 10:07:24;;;;;;;5.97;1.70;;;;;;;6.77;82.45;101937.38;5056763;28;20021;-53
2021/12/19 10:09:55;;;;;;;4.05;1.02;;;;;;;6.83;82.27;101932.09;5061619;28;20368;-51
2021/12/19 10:13:08;;;;;;;6.22;1.23;;;;;;;6.83;82.37;101937.44;5054450;28;20074;-51
2021/12/19 10:15:19;;;;;;;6.20;1.27;;;;;;;6.86;82.41;101939.72;5047794;28;20566;-52
2021/12/19 10:17:46;;;;;;;8.65;2.13;;;;;;;6.81;82.54;101923.47;5058431;28;20101;-53
2021/12/19 10:20:15;;;;;;;7.75;1.30;;;;;;;6.85;82.67;101927.41;5059752;28;20021;-51
2021/12/19 10:22:44;;;;;;;8.25;1.60;;;;;;;6.85;82.78;101919.41;5054063;28;20102;-52
2021/12/19 10:25:18;;;;;;;8.55;1.50;;;;;;;6.88;82.65;101913.69;5057916;28;20029;-51
2021/12/19 10:27:45;;;;;;;6.20;1.13;;;;;;;6.92;83.07;101908.78;5056854;28;20112;-55
2021/12/19 10:30:23;;;;;;;6.68;2.00;;;;;;;6.94;82.46;101904.91;5058414;28;20055;-52
2021/12/19 10:33:05;;;;;;;5.00;1.20;;;;;;;6.96;82.45;101897.53;5057790;28;20055;-53
2021/12/19 10:35:39;;;;;;;8.00;1.38;;;;;;;6.96;82.89;101892.22;5056971;28;20051;-49
2021/12/19 10:38:26;;;;;;;9.23;2.05;;;;;;;6.94;82.57;101890.75;5058608;28;20038;-50
2021/12/19 10:41:20;;;;;;;7.35;1.13;;;;;;;6.86;83.04;101880.28;5055937;28;20472;-49
2021/12/19 10:43:58;;;;;;;6.60;2.00;;;;;;;6.97;83.04;101871.72;5052532;28;20237;-53
2021/12/19 10:46:32;;;;;;;8.57;1.50;;;;;;;6.97;82.95;101869.88;5055904;28;20122;-50
2021/12/19 10:48:58;;;;;;;4.53;1.45;;;;;;;6.94;83.08;101859.59;5053151;28;20029;-53
2021/12/19 10:51:25;;;;;;;6.57;1.40;;;;;;;7.03;82.93;101864.78;5057041;28;20024;-50
2021/12/19 10:53:53;;;;;;;7.45;1.20;;;;;;;7.00;82.56;101854.50;5053456;28;20416;-49
2021/12/19 10:56:31;;;;;;;6.20;1.65;;;;;;;6.91;82.59;101854.69;5051755;28;20052;-50
2021/12/19 10:58:59;;;;;;;4.03;1.30;;;;;;;6.97;83.00;101847.72;5063321;28;20473;-49
2021/12/19 11:01:35;;;;;;;6.45;1.45;;;;;;;6.97;83.00;101861.88;5060294;28;20025;-52
2021/12/19 11:04:08;;;;;;;6.78;1.70;;;;;;;6.98;82.92;101855.53;5067680;28;20129;-49
2021/12/19 11:06:40;;;;;;;6.10;1.77;;;;;;;7.05;82.88;101852.09;5059293;28;20426;-53
2021/12/19 11:09:17;;;;;;;10.35;1.92;;;;;;;6.96;82.58;101846.91;5061998;28;20404;-49
2021/12/19 11:11:42;;;;;;;3.13;0.90;;;;;;;7.08;82.70;101851.69;5060726;28;20507;-50
2021/12/19 11:14:11;;;;;;;5.03;1.65;;;;;;;7.06;82.64;101845.75;5068567;28;20336;-49
2021/12/19 11:16:36;;;;;;;6.80;1.25;;;;;;;7.01;82.67;101834.88;5062539;28;20024;-51
2021/12/19 11:19:03;;;;;;;7.90;1.60;;;;;;;6.93;82.71;101826.00;5057263;28;20648;-49
2021/12/19 11:21:33;;;;;;;7.50;1.30;;;;;;;7.02;83.26;101825.84;5067378;28;20310;-50
2021/12/19 11:24:00;;;;;;;4.18;1.23;;;;;;;7.01;83.16;101824.19;5068417;28;20496;-49
2021/12/19 11:26:26;;;;;;;9.88;1.75;;;;;;;7.05;83.13;101820.13;5063666;28;20692;-49
2021/12/19 11:28:55;;;;;;;4.45;1.25;;;;;;;7.13;82.90;101826.09;5068929;28;20078;-49
2021/12/19 11:31:20;;;;;;;6.93;1.60;;;;;;;7.18;82.65;101822.81;5061351;28;20155;-52
2021/12/19 11:33:51;;;;;;;9.35;1.27;;;;;;;7.12;83.06;101824.44;5055231;28;20029;-53
2021/12/19 11:36:18;;;;;;;8.48;1.40;;;;;;;7.15;83.05;101820.53;5062787;28;20448;-49
2021/12/19 11:38:45;;;;;;;9.30;1.60;;;;;;;7.12;83.19;101815.63;5058454;28;20033;-52
2021/12/19 11:41:10;;;;;;;6.18;1.48;;;;;;;7.10;83.06;101810.50;5061325;28;20098;-50
2021/12/19 11:43:38;;;;;;;4.38;1.40;;;;;;;7.11;83.15;101811.31;5064648;28;20505;-52
2021/12/19 11:46:11;;;;;;;6.72;1.90;;;;;;;7.07;83.40;101802.06;5056786;28;20620;-51
2021/12/19 11:48:37;;;;;;;9.18;1.73;;;;;;;7.12;83.54;101805.78;5064659;28;20020;-54
2021/12/19 11:51:29;;;;;;;5.55;1.80;;;;;;;7.22;82.95;101798.25;5060953;28;20110;-50
2021/12/19 11:54:12;;;;;;;4.57;1.00;;;;;;;7.16;83.20;101795.53;5070222;22;20500;-81
2021/12/19 11:56:37;;;;;;;7.03;1.60;;;;;;;7.23;83.14;101785.75;5062998;22;20099;-50
2021/12/19 11:59:20;;;;;;;7.25;1.77;;;;;;;7.23;82.78;101781.22;5058033;28;20278;-50
2021/12/19 12:01:46;;;;;;;4.72;1.50;;;;;;;7.28;83.04;101783.28;5062513;28;20119;-52
2021/12/19 12:04:14;;;;;;;12.48;1.55;;;;;;;7.36;82.91;101776.94;5047224;28;20033;-50
2021/12/19 12:06:53;;;;;;;8.00;1.38;;;;;;;7.31;83.14;101774.88;5063604;28;20116;-50
2021/12/19 12:09:27;;;;;;;8.05;2.05;;;;;;;7.33;83.32;101758.69;5062678;28;20102;-52
2021/12/19 12:12:11;;;;;;;9.25;1.67;;;;;;;7.35;83.12;101754.78;5061031;28;20070;-52
2021/12/19 12:14:42;;;;;;;7.13;1.55;;;;;;;7.36;83.45;101753.78;5061624;28;20040;-50
2021/12/19 12:17:15;;;;;;;12.75;2.08;;;;;;;7.34;83.06;101749.66;5061583;28;20834;-50
2021/12/19 12:19:41;;;;;;;13.38;1.60;;;;;;;7.35;83.43;101752.13;5063910;28;20540;-50
2021/12/19 12:22:25;;;;;;;6.65;1.65;;;;;;;7.30;83.26;101749.25;5061244;28;21875;-50
2021/12/19 12:25:23;;;;;;;3.38;1.48;;;;;;;7.17;83.89;101743.88;5061507;28;20115;-53
2021/12/19 12:27:56;;;;;;;7.63;1.55;;;;;;;7.27;83.79;101736.31;5061148;28;20021;-50
2021/12/19 12:30:41;;;;;;;12.75;1.67;;;;;;;7.29;83.83;101736.94;5057008;28;20448;-52
2021/12/19 12:33:09;;;;;;;10.73;1.90;;;;;;;7.26;83.82;101727.50;5061526;28;20024;-51
2021/12/19 12:35:38;;;;;;;6.15;1.50;;;;;;;7.23;84.37;101727.09;5062000;28;20043;-52
2021/12/19 12:38:04;;;;;;;8.18;1.52;;;;;;;7.21;84.44;101719.31;5062498;28;20085;-52